KSNA/SNA METAR and TAF weather

Enter ICAO airport designator
Station Type Date Time Source
KSNA METAR 2019/12/06 08:53 UTC NOAA

KSNA 060853Z AUTO 00000KT 10SM CLR 14/11 A3009 RMK AO2 SLP188 T01390106 58002


Station Type Date Time Source
KSNA Decoded METAR 2019/12/06 08:53 UTC NOAA

SANTA ANA WAYNE ORANGE CTY, CA, United States (KSNA) 33-41N 117-52W 15M
Dec 06, 2019 - 03:53 AM EST / 2019.12.06 0853 UTC
Wind: Calm:0
Visibility: 10 mile(s):0
Sky conditions: clear
Temperature: 57.0 F (13.9 C)
Dew Point: 51.1 F (10.6 C)
Relative Humidity: 80%
Pressure (altimeter): 30.09 in. Hg (1018 hPa)
Pressure tendency: 0.01 inches (0.2 hPa) lower than three hours ago
ob: KSNA 060853Z AUTO 00000KT 10SM CLR 14/11 A3009 RMK AO2 SLP188 T01390106 58002
cycle: 9

Station Type Date Time Source
KSNA TAF 2019/12/06 06:36 UTC NOAA

TAF KSNA 060532Z 0606/0706 VRB06KT P6SM BKN250

Example: see airport list